Latest Weather Observations for Kurnell

IDN60801

Issued at 6:02 pm EST Saturday 4 July 2015 (issued every 30 minutes, with the page automatically refreshed every 10 minutes)

About weather observations | Map of weather stations | Latest weather observations for NSW | Other Formats
Station Details ID: 066043 Name: KURNELL AWS Lat: -34.00 Lon: 151.21 Height: 4.0 m
Data from the previous 72 hours. | See also: Recent months for locations in New South Wales
Date/Time
EST
Temp
°C
App
Temp
°C
Dew
Point
Rel
Hum
%
Delta-T
°C
Wind Press
QNH
hPa
Press
MSL
hPa
Rain
since 9 am
mm
Dir
 
Spd
km/h
Gust
km/h
Spd
kts
Gust
kts
04/06:00pm - - - - - CALM 0 0 0 0 - - -
04/05:30pm - - - - - CALM 0 0 0 0 - - -
04/05:00pm - - - - - SW 7 11 4 6 - - -
04/04:30pm - - - - - SSW 9 13 5 7 - - -
04/04:00pm - - - - - S 13 17 7 9 - - -
04/03:30pm - - - - - S 17 22 9 12 - - -
04/03:00pm - - - - - S 17 20 9 11 - - -
04/02:30pm - - - - - S 17 20 9 11 - - -
04/02:00pm - - - - - WNW 13 19 7 10 - - -
04/01:30pm - - - - - WNW 15 17 8 9 - - -
04/01:00pm - - - - - WNW 17 19 9 10 - - -
04/12:30pm - - - - - WNW 17 22 9 12 - - -
04/12:00pm - - - - - WNW 19 20 10 11 - - -
04/11:30am - - - - - WNW 15 19 8 10 - - -
04/11:00am - - - - - WNW 15 19 8 10 - - -
04/10:30am - - - - - WNW 19 22 10 12 - - -
04/10:00am - - - - - WNW 19 22 10 12 - - -
04/09:30am - - - - - W 20 24 11 13 - - -
04/09:00am - - - - - WNW 17 20 9 11 - - -
04/08:30am - - - - - NW 19 22 10 12 - - -
04/08:00am - - - - - WNW 19 24 10 13 - - -
04/07:30am - - - - - WNW 20 24 11 13 - - -
04/07:00am - - - - - NW 20 26 11 14 - - -
04/06:30am - - - - - NW 24 28 13 15 - - -
04/06:00am - - - - - NW 15 19 8 10 - - -
04/05:30am - - - - - NW 15 19 8 10 - - -
04/05:00am - - - - - NW 11 15 6 8 - - -
04/04:30am - - - - - WNW 13 17 7 9 - - -
04/04:00am - - - - - NNW 17 20 9 11 - - -
04/03:30am - - - - - NW 19 22 10 12 - - -
04/03:00am - - - - - NW 15 19 8 10 - - -
04/02:30am - - - - - NW 17 19 9 10 - - -
04/02:00am - - - - - NNW 17 19 9 10 - - -
04/01:30am - - - - - NNW 11 15 6 8 - - -
04/01:00am - - - - - NNW 13 15 7 8 - - -
04/12:30am - - - - - NW 11 13 6 7 - - -
04/12:00am - - - - - NW 11 13 6 7 - - -
 
Date/Time
EST
Temp
°C
App
Temp
°C
Dew
Point
Rel
Hum
%
Delta-T
°C
Wind Press
QNH
hPa
Press
MSL
hPa
Rain
since 9 am
mm
Dir
 
Spd
km/h
Gust
km/h
Spd
kts
Gust
kts
03/11:30pm - - - - - WNW 13 15 7 8 - - -
03/11:00pm - - - - - WNW 13 15 7 8 - - -
03/10:30pm - - - - - WNW 9 11 5 6 - - -
03/10:00pm - - - - - SSW 2 9 1 5 - - -
03/09:30pm - - - - - CALM 0 0 0 0 - - -
03/09:00pm - - - - - S 6 7 3 4 - - -
03/08:30pm - - - - - SSW 2 6 1 3 - - -
03/08:00pm - - - - - SW 6 7 3 4 - - -
03/07:30pm - - - - - WSW 4 7 2 4 - - -
03/07:00pm - - - - - CALM 0 0 0 0 - - -
03/06:30pm - - - - - CALM 0 0 0 0 - - -
03/06:00pm - - - - - S 6 7 3 4 - - -
03/05:30pm - - - - - S 7 9 4 5 - - -
03/05:00pm - - - - - SSW 9 11 5 6 - - -
03/04:30pm - - - - - S 9 13 5 7 - - -
03/04:00pm - - - - - S 15 19 8 10 - - -
03/03:30pm - - - - - SSE 15 19 8 10 - - -
03/03:00pm - - - - - S 19 26 10 14 - - -
03/02:30pm - - - - - S 22 28 12 15 - - -
03/02:00pm - - - - - SSW 26 35 14 19 - - -
03/01:30pm - - - - - SSW 24 33 13 18 - - -
03/01:00pm - - - - - SSW 28 35 15 19 - - -
03/12:30pm - - - - - SW 30 39 16 21 - - -
03/12:00pm - - - - - SW 30 37 16 20 - - -
03/11:30am - - - - - SSW 30 39 16 21 - - -
03/11:00am - - - - - SSW 30 39 16 21 - - -
03/10:30am - - - - - SW 30 39 16 21 - - -
03/10:00am - - - - - SSW 28 37 15 20 - - -
03/09:30am - - - - - WNW 17 20 9 11 - - -
03/09:00am - - - - - W 17 24 9 13 - - -
03/08:30am - - - - - WNW 24 26 13 14 - - -
03/08:00am - - - - - WNW 22 28 12 15 - - -
03/07:30am - - - - - W 22 28 12 15 - - -
03/07:00am - - - - - W 24 28 13 15 - - -
03/06:30am - - - - - W 26 30 14 16 - - -
03/06:00am - - - - - W 24 30 13 16 - - -
03/05:30am - - - - - W 24 28 13 15 - - -
03/05:00am - - - - - W 30 33 16 18 - - -
03/04:30am - - - - - W 26 30 14 16 - - -
03/04:00am - - - - - W 28 30 15 16 - - -
03/03:30am - - - - - WSW 17 24 9 13 - - -
03/03:00am - - - - - SW 19 35 10 19 - - -
03/02:30am - - - - - W 20 30 11 16 - - -
03/02:00am - - - - - W 22 39 12 21 - - -
03/01:30am - - - - - SW 17 22 9 12 - - -
03/01:00am - - - - - W 24 28 13 15 - - -
03/12:30am - - - - - WSW 22 30 12 16 - - -
03/12:00am - - - - - WSW 28 32 15 17 - - -
 
Date/Time
EST
Temp
°C
App
Temp
°C
Dew
Point
Rel
Hum
%
Delta-T
°C
Wind Press
QNH
hPa
Press
MSL
hPa
Rain
since 9 am
mm
Dir
 
Spd
km/h
Gust
km/h
Spd
kts
Gust
kts
02/11:30pm - - - - - WSW 26 33 14 18 - - -
02/11:00pm - - - - - W 28 33 15 18 - - -
02/10:30pm - - - - - WSW 28 33 15 18 - - -
02/10:00pm - - - - - WSW 28 33 15 18 - - -
02/09:30pm - - - - - WSW 28 35 15 19 - - -
02/09:00pm - - - - - SW 32 41 17 22 - - -
02/08:30pm - - - - - W 28 33 15 18 - - -
02/08:00pm - - - - - WSW 32 39 17 21 - - -
02/07:30pm - - - - - SW 32 41 17 22 - - -
02/07:00pm - - - - - WSW 30 39 16 21 - - -
02/06:30pm - - - - - WSW 35 50 19 27 - - -
02/06:00pm - - - - - WSW 39 52 21 28 - - -
02/05:30pm - - - - - W 44 65 24 35 - - -
02/05:04pm - - - - - WNW 48 67 26 36 - - -
02/05:00pm - - - - - WNW 43 56 23 30 - - -
02/04:30pm - - - - - W 33 43 18 23 - - -
02/04:00pm - - - - - W 43 50 23 27 - - -
02/03:30pm - - - - - W 43 56 23 30 - - -
02/03:00pm - - - - - W 37 46 20 25 - - -
02/02:30pm - - - - - W 43 50 23 27 - - -
02/02:00pm - - - - - W 46 57 25 31 - - -
02/01:30pm - - - - - W 50 63 27 34 - - -
02/01:00pm - - - - - W 43 59 23 32 - - -
02/12:57pm - - - - - W 39 59 21 32 - - -
02/12:30pm - - - - - W 43 56 23 30 - - -
02/12:00pm - - - - - W 37 44 20 24 - - -
02/11:30am - - - - - W 39 48 21 26 - - -
02/11:00am - - - - - W 43 56 23 30 - - -
02/10:30am - - - - - W 39 50 21 27 - - -
02/10:00am - - - - - WNW 32 39 17 21 - - -
02/09:30am - - - - - NW 30 33 16 18 - - -
02/09:00am - - - - - WNW 32 35 17 19 - - -
02/08:30am - - - - - WNW 32 39 17 21 - - -
02/08:00am - - - - - WNW 33 39 18 21 - - -
02/07:30am - - - - - WNW 32 35 17 19 - - -
02/07:00am - - - - - WNW 32 37 17 20 - - -
02/06:30am - - - - - W 33 39 18 21 - - -
02/06:00am - - - - - W 35 41 19 22 - - -
02/05:30am - - - - - WNW 30 37 16 20 - - -
02/05:00am - - - - - WNW 30 39 16 21 - - -
02/04:30am - - - - - WNW 28 32 15 17 - - -
02/04:00am - - - - - W 28 32 15 17 - - -
02/03:30am - - - - - WSW 30 50 16 27 - - -
02/03:00am - - - - - W 32 35 17 19 - - -
02/02:30am - - - - - W 28 33 15 18 - - -
02/02:00am - - - - - W 24 32 13 17 - - -
02/01:30am - - - - - W 28 32 15 17 - - -
02/01:00am - - - - - W 28 32 15 17 - - -
02/12:30am - - - - - W 26 30 14 16 - - -
02/12:00am - - - - - W 17 26 9 14 - - -
 
Date/Time
EST
Temp
°C
App
Temp
°C
Dew
Point
Rel
Hum
%
Delta-T
°C
Wind Press
QNH
hPa
Press
MSL
hPa
Rain
since 9 am
mm
Dir
 
Spd
km/h
Gust
km/h
Spd
kts
Gust
kts
01/11:30pm - - - - - W 28 33 15 18 - - -
01/11:00pm - - - - - W 32 37 17 20 - - -
01/10:30pm - - - - - W 28 33 15 18 - - -
01/10:00pm - - - - - WSW 19 24 10 13 - - -
01/09:30pm - - - - - WSW 11 15 6 8 - - -
01/09:00pm - - - - - WSW 15 20 8 11 - - -
01/08:30pm - - - - - W 15 17 8 9 - - -
01/08:00pm - - - - - W 13 15 7 8 - - -
01/07:30pm - - - - - WSW 4 9 2 5 - - -
01/07:00pm - - - - - WSW 7 13 4 7 - - -
01/06:30pm - - - - - SSW 6 7 3 4 - - -

Other Formats:

Comma delimited format used in spreadsheet applications
http://www.bom.gov.au/fwo/IDN60801/IDN60801.95756.axf

JavaScript Object Notation format (JSON) in row-major order
http://www.bom.gov.au/fwo/IDN60801/IDN60801.95756.json